ヴィエンチャン の空港の天気 - METARとTAF

ワットタイ国際空港 ( VLVT / VTE ) - ラオス ヴィエンチャン
飛行場実況気象(Metar)
観測時間11/30 18:00 ICT (11/30 11:00 UTC)
風向・風速北東 1m/s
視程6000m
天気現象
なし
気温25℃
湿度57%
気圧1015hPa
METARVLVT 301100Z 04002KT 6000 NSC 25/16 Q1015 NOSIG
過去の天気等 Google飛行場航空写真 Wunderground天気予報

過去48時間のMETAR

飛行場予報(TAF)
発表時間: 12/01 00:00 ICT (11/30 17:00 UTC)
予報対象時間: 1日1時 ICT ~ 2日1時 ICT
風向・風速北西 2m/s
視程8000m
少しの雲 雲底高度 610m
少しの雲 雲底高度 6100m
1日1時 ICT ~ 1日5時 ICT に一時的に
視程3000m
天気現象もや
少しの雲 雲底高度 1520m
TAF VLVT 301700Z 3018/0118 32004KT 8000 FEW020 FEW200
TEMPO 3018/3022 3000 BR FEW050